sensor_id;sensor_type;location;lat;lon;timestamp;pressure;altitude;pressure_sealevel;temperature;humidity
74675;BME280;63200;48.810;12.352;2023-03-04T00:00:54;97829.84;;;0.02;63.09
74675;BME280;63200;48.810;12.352;2023-03-04T00:03:20;97814.25;;;-0.15;63.38
74675;BME280;63200;48.810;12.352;2023-03-04T00:05:45;97817.13;;;-0.10;63.36
74675;BME280;63200;48.810;12.352;2023-03-04T00:08:11;97817.34;;;-0.11;63.39
74675;BME280;63200;48.810;12.352;2023-03-04T00:10:37;97799.72;;;-0.26;63.27
74675;BME280;63200;48.810;12.352;2023-03-04T00:13:02;97785.34;;;-0.38;63.64
74675;BME280;63200;48.810;12.352;2023-03-04T00:15:27;97824.72;;;-0.20;63.42
74675;BME280;63200;48.810;12.352;2023-03-04T00:17:53;97813.69;;;-0.30;63.74
74675;BME280;63200;48.810;12.352;2023-03-04T00:20:18;97806.69;;;-0.45;64.13
74675;BME280;63200;48.810;12.352;2023-03-04T00:22:43;97821.47;;;-0.36;64.21
74675;BME280;63200;48.810;12.352;2023-03-04T00:25:09;97816.31;;;-0.37;64.69
74675;BME280;63200;48.810;12.352;2023-03-04T00:27:34;97815.50;;;-0.44;65.56
74675;BME280;63200;48.810;12.352;2023-03-04T00:29:59;97797.88;;;-0.59;65.79
74675;BME280;63200;48.810;12.352;2023-03-04T00:32:25;97816.53;;;-0.59;66.13
74675;BME280;63200;48.810;12.352;2023-03-04T00:34:50;97817.53;;;-0.73;66.31
74675;BME280;63200;48.810;12.352;2023-03-04T00:37:15;97812.63;;;-0.83;66.30
74675;BME280;63200;48.810;12.352;2023-03-04T00:39:40;97816.50;;;-0.86;66.62
74675;BME280;63200;48.810;12.352;2023-03-04T00:42:06;97744.88;;;-1.36;66.46
74675;BME280;63200;48.810;12.352;2023-03-04T00:44:31;97814.22;;;-0.89;66.22
74675;BME280;63200;48.810;12.352;2023-03-04T00:46:57;97758.19;;;-1.29;66.55
74675;BME280;63200;48.810;12.352;2023-03-04T00:49:22;97814.84;;;-0.93;66.80
74675;BME280;63200;48.810;12.352;2023-03-04T00:51:47;97809.72;;;-0.95;66.51
74675;BME280;63200;48.810;12.352;2023-03-04T00:54:13;97794.34;;;-0.99;66.61
74675;BME280;63200;48.810;12.352;2023-03-04T00:56:38;97774.44;;;-1.10;66.30
74675;BME280;63200;48.810;12.352;2023-03-04T00:59:03;97816.72;;;-0.87;66.34
74675;BME280;63200;48.810;12.352;2023-03-04T01:01:29;97816.50;;;-0.86;66.39
74675;BME280;63200;48.810;12.352;2023-03-04T01:03:54;97817.75;;;-0.81;65.78
74675;BME280;63200;48.810;12.352;2023-03-04T01:06:19;97814.22;;;-0.95;66.31
74675;BME280;63200;48.810;12.352;2023-03-04T01:08:44;97762.28;;;-1.33;66.54
74675;BME280;63200;48.810;12.352;2023-03-04T01:11:10;97805.63;;;-1.04;66.97
74675;BME280;63200;48.810;12.352;2023-03-04T01:13:35;97806.84;;;-1.00;66.79
74675;BME280;63200;48.810;12.352;2023-03-04T01:16:01;97764.13;;;-1.40;67.52
74675;BME280;63200;48.810;12.352;2023-03-04T01:18:28;97797.38;;;-1.16;67.83
74675;BME280;63200;48.810;12.352;2023-03-04T01:20:53;97749.56;;;-1.44;68.24
74675;BME280;63200;48.810;12.352;2023-03-04T01:23:19;97790.63;;;-1.19;68.33
74675;BME280;63200;48.810;12.352;2023-03-04T01:25:44;97784.19;;;-1.38;68.77
74675;BME280;63200;48.810;12.352;2023-03-04T01:28:09;97795.72;;;-1.24;69.09
74675;BME280;63200;48.810;12.352;2023-03-04T01:30:35;97795.31;;;-1.21;68.80
74675;BME280;63200;48.810;12.352;2023-03-04T01:33:00;97769.28;;;-1.32;68.86
74675;BME280;63200;48.810;12.352;2023-03-04T01:35:26;97784.16;;;-1.44;69.13
74675;BME280;63200;48.810;12.352;2023-03-04T01:37:51;97779.69;;;-1.37;69.47
74675;BME280;63200;48.810;12.352;2023-03-04T01:40:16;97739.00;;;-1.79;69.15
74675;BME280;63200;48.810;12.352;2023-03-04T01:42:42;97746.56;;;-1.76;69.84
74675;BME280;63200;48.810;12.352;2023-03-04T01:45:14;97782.09;;;-1.56;70.22
74675;BME280;63200;48.810;12.352;2023-03-04T01:47:41;97764.63;;;-1.72;70.58
74675;BME280;63200;48.810;12.352;2023-03-04T01:50:32;97788.59;;;-1.72;71.36
74675;BME280;63200;48.810;12.352;2023-03-04T01:52:58;97784.22;;;-1.86;71.15
74675;BME280;63200;48.810;12.352;2023-03-04T01:55:24;97779.88;;;-1.94;71.76
74675;BME280;63200;48.810;12.352;2023-03-04T01:57:50;97773.41;;;-1.78;71.18
74675;BME280;63200;48.810;12.352;2023-03-04T02:00:21;97775.00;;;-1.83;71.13
74675;BME280;63200;48.810;12.352;2023-03-04T02:02:49;97775.75;;;-1.96;71.97
74675;BME280;63200;48.810;12.352;2023-03-04T02:05:15;97773.50;;;-1.99;72.25
74675;BME280;63200;48.810;12.352;2023-03-04T02:07:41;97730.63;;;-2.18;71.91
74675;BME280;63200;48.810;12.352;2023-03-04T02:10:07;97737.66;;;-2.04;72.03
74675;BME280;63200;48.810;12.352;2023-03-04T02:12:33;97767.06;;;-1.77;71.40
74675;BME280;63200;48.810;12.352;2023-03-04T02:14:58;97771.38;;;-1.76;71.42
74675;BME280;63200;48.810;12.352;2023-03-04T02:17:25;97768.88;;;-1.77;71.52
74675;BME280;63200;48.810;12.352;2023-03-04T02:19:55;97764.97;;;-1.81;71.79
74675;BME280;63200;48.810;12.352;2023-03-04T02:22:24;97752.63;;;-1.96;71.36
74675;BME280;63200;48.810;12.352;2023-03-04T02:24:59;97745.47;;;-1.95;71.16
74675;BME280;63200;48.810;12.352;2023-03-04T02:27:26;97767.41;;;-1.87;70.91
74675;BME280;63200;48.810;12.352;2023-03-04T02:29:52;97766.59;;;-1.87;71.89
74675;BME280;63200;48.810;12.352;2023-03-04T02:32:17;97755.25;;;-2.03;71.45
74675;BME280;63200;48.810;12.352;2023-03-04T02:34:48;97766.75;;;-2.02;71.59
74675;BME280;63200;48.810;12.352;2023-03-04T02:37:14;97765.19;;;-2.25;71.94
74675;BME280;63200;48.810;12.352;2023-03-04T02:39:43;97765.34;;;-2.26;72.52
74675;BME280;63200;48.810;12.352;2023-03-04T02:42:09;97716.06;;;-2.57;71.86
74675;BME280;63200;48.810;12.352;2023-03-04T02:44:36;97762.25;;;-2.37;72.42
74675;BME280;63200;48.810;12.352;2023-03-04T02:47:04;97762.41;;;-2.38;72.41
74675;BME280;63200;48.810;12.352;2023-03-04T02:49:31;97765.38;;;-2.55;72.28
74675;BME280;63200;48.810;12.352;2023-03-04T02:52:03;97724.75;;;-2.98;72.99
74675;BME280;63200;48.810;12.352;2023-03-04T02:54:29;97724.00;;;-3.14;73.44
74675;BME280;63200;48.810;12.352;2023-03-04T02:56:59;97737.53;;;-3.09;73.88
74675;BME280;63200;48.810;12.352;2023-03-04T02:59:25;97767.72;;;-2.95;74.16
74675;BME280;63200;48.810;12.352;2023-03-04T03:01:51;97764.47;;;-2.90;73.60
74675;BME280;63200;48.810;12.352;2023-03-04T03:04:17;97762.31;;;-2.80;73.57
74675;BME280;63200;48.810;12.352;2023-03-04T03:06:43;97756.50;;;-2.90;73.99
74675;BME280;63200;48.810;12.352;2023-03-04T03:09:08;97763.28;;;-2.88;74.02
74675;BME280;63200;48.810;12.352;2023-03-04T03:11:33;97760.88;;;-2.82;73.34
74675;BME280;63200;48.810;12.352;2023-03-04T03:14:00;97733.34;;;-2.96;73.78
74675;BME280;63200;48.810;12.352;2023-03-04T03:16:25;97753.69;;;-2.82;73.37
74675;BME280;63200;48.810;12.352;2023-03-04T03:18:51;97767.00;;;-2.82;74.02
74675;BME280;63200;48.810;12.352;2023-03-04T03:21:16;97763.84;;;-2.92;74.62
74675;BME280;63200;48.810;12.352;2023-03-04T03:23:41;97775.44;;;-3.00;74.83
74675;BME280;63200;48.810;12.352;2023-03-04T03:26:07;97747.66;;;-3.19;74.77
74675;BME280;63200;48.810;12.352;2023-03-04T03:28:33;97770.72;;;-2.98;75.36
74675;BME280;63200;48.810;12.352;2023-03-04T03:30:58;97768.34;;;-2.93;74.56
74675;BME280;63200;48.810;12.352;2023-03-04T03:33:23;97767.72;;;-2.95;74.63
74675;BME280;63200;48.810;12.352;2023-03-04T03:35:49;97735.72;;;-3.30;74.95
74675;BME280;63200;48.810;12.352;2023-03-04T03:38:14;97726.75;;;-3.50;75.60
74675;BME280;63200;48.810;12.352;2023-03-04T03:40:39;97761.88;;;-3.27;75.84
74675;BME280;63200;48.810;12.352;2023-03-04T03:43:05;97747.97;;;-3.29;75.57
74675;BME280;63200;48.810;12.352;2023-03-04T03:45:30;97762.72;;;-3.26;76.28
74675;BME280;63200;48.810;12.352;2023-03-04T03:47:55;97679.78;;;-3.72;76.63
74675;BME280;63200;48.810;12.352;2023-03-04T03:50:21;97763.28;;;-3.09;76.30
74675;BME280;63200;48.810;12.352;2023-03-04T03:52:46;97737.16;;;-3.27;75.14
74675;BME280;63200;48.810;12.352;2023-03-04T03:55:11;97740.94;;;-3.15;75.07
74675;BME280;63200;48.810;12.352;2023-03-04T03:57:37;97754.44;;;-2.95;74.93
74675;BME280;63200;48.810;12.352;2023-03-04T04:00:04;97760.88;;;-2.82;74.51
74675;BME280;63200;48.810;12.352;2023-03-04T04:02:29;97759.22;;;-2.83;74.17
74675;BME280;63200;48.810;12.352;2023-03-04T04:04:54;97759.22;;;-2.83;74.51
74675;BME280;63200;48.810;12.352;2023-03-04T04:07:20;97759.59;;;-2.87;74.03
74675;BME280;63200;48.810;12.352;2023-03-04T04:09:45;97766.06;;;-2.96;73.80
74675;BME280;63200;48.810;12.352;2023-03-04T04:12:13;97743.84;;;-3.10;73.93
74675;BME280;63200;48.810;12.352;2023-03-04T04:14:38;97758.41;;;-3.06;73.75
74675;BME280;63200;48.810;12.352;2023-03-04T04:17:04;97760.88;;;-3.04;74.15
74675;BME280;63200;48.810;12.352;2023-03-04T04:19:29;97742.59;;;-3.14;74.38
74675;BME280;63200;48.810;12.352;2023-03-04T04:21:54;97762.16;;;-3.00;74.12
74675;BME280;63200;48.810;12.352;2023-03-04T04:24:20;97680.38;;;-3.48;73.96
74675;BME280;63200;48.810;12.352;2023-03-04T04:26:45;97699.75;;;-3.32;74.08
74675;BME280;63200;48.810;12.352;2023-03-04T04:29:13;97755.44;;;-2.96;73.90
74675;BME280;63200;48.810;12.352;2023-03-04T04:31:39;97757.44;;;-2.98;74.17
74675;BME280;63200;48.810;12.352;2023-03-04T04:34:04;97723.69;;;-3.26;74.31
74675;BME280;63200;48.810;12.352;2023-03-04T04:36:30;97744.19;;;-3.20;74.22
74675;BME280;63200;48.810;12.352;2023-03-04T04:38:55;97764.72;;;-3.28;73.69
74675;BME280;63200;48.810;12.352;2023-03-04T04:41:27;97751.63;;;-3.52;73.58
74675;BME280;63200;48.810;12.352;2023-03-04T04:43:52;97750.38;;;-3.56;74.97
74675;BME280;63200;48.810;12.352;2023-03-04T04:46:18;97754.91;;;-3.49;74.90
74675;BME280;63200;48.810;12.352;2023-03-04T04:48:44;97708.13;;;-3.72;74.90
74675;BME280;63200;48.810;12.352;2023-03-04T04:51:09;97739.63;;;-3.47;75.10
74675;BME280;63200;48.810;12.352;2023-03-04T04:53:35;97739.03;;;-3.43;74.20
74675;BME280;63200;48.810;12.352;2023-03-04T04:56:08;97741.16;;;-3.38;74.75
74675;BME280;63200;48.810;12.352;2023-03-04T04:58:34;97750.06;;;-3.24;73.93
74675;BME280;63200;48.810;12.352;2023-03-04T05:00:59;97766.56;;;-3.29;74.33
74675;BME280;63200;48.810;12.352;2023-03-04T05:03:25;97755.41;;;-3.39;74.08
74675;BME280;63200;48.810;12.352;2023-03-04T05:05:50;97739.28;;;-3.59;73.56
74675;BME280;63200;48.810;12.352;2023-03-04T05:08:15;97753.50;;;-3.67;73.67
74675;BME280;63200;48.810;12.352;2023-03-04T05:10:40;97757.00;;;-3.81;73.36
74675;BME280;63200;48.810;12.352;2023-03-04T05:13:06;97724.03;;;-4.09;74.26
74675;BME280;63200;48.810;12.352;2023-03-04T05:15:31;97752.88;;;-3.84;74.17
74675;BME280;63200;48.810;12.352;2023-03-04T05:17:56;97758.72;;;-3.74;74.57
74675;BME280;63200;48.810;12.352;2023-03-04T05:20:22;97750.44;;;-3.64;74.61
74675;BME280;63200;48.810;12.352;2023-03-04T05:22:48;97754.47;;;-3.53;74.27
74675;BME280;63200;48.810;12.352;2023-03-04T05:25:13;97758.59;;;-3.50;74.86
74675;BME280;63200;48.810;12.352;2023-03-04T05:27:38;97760.97;;;-3.56;73.99
74675;BME280;63200;48.810;12.352;2023-03-04T05:30:04;97762.44;;;-3.68;74.56
74675;BME280;63200;48.810;12.352;2023-03-04T05:32:29;97731.19;;;-3.88;74.38
74675;BME280;63200;48.810;12.352;2023-03-04T05:34:55;97763.91;;;-3.65;74.47
74675;BME280;63200;48.810;12.352;2023-03-04T05:37:20;97759.88;;;-3.61;74.46
74675;BME280;63200;48.810;12.352;2023-03-04T05:39:45;97760.53;;;-3.59;74.21
74675;BME280;63200;48.810;12.352;2023-03-04T05:42:10;97761.97;;;-3.57;74.36
74675;BME280;63200;48.810;12.352;2023-03-04T05:44:36;97756.66;;;-3.57;73.81
74675;BME280;63200;48.810;12.352;2023-03-04T05:47:01;97760.13;;;-3.56;73.58
74675;BME280;63200;48.810;12.352;2023-03-04T05:49:26;97768.75;;;-3.54;73.25
74675;BME280;63200;48.810;12.352;2023-03-04T05:51:52;97761.97;;;-3.57;73.22
74675;BME280;63200;48.810;12.352;2023-03-04T05:54:17;97769.94;;;-3.57;73.31
74675;BME280;63200;48.810;12.352;2023-03-04T05:56:43;97728.72;;;-3.74;73.27
74675;BME280;63200;48.810;12.352;2023-03-04T05:59:08;97767.63;;;-3.45;73.07
74675;BME280;63200;48.810;12.352;2023-03-04T06:01:33;97772.81;;;-3.37;72.83
74675;BME280;63200;48.810;12.352;2023-03-04T06:03:59;97779.03;;;-3.29;72.53
74675;BME280;63200;48.810;12.352;2023-03-04T06:06:24;97781.81;;;-3.16;72.94
74675;BME280;63200;48.810;12.352;2023-03-04T06:08:49;97783.09;;;-3.12;72.43
74675;BME280;63200;48.810;12.352;2023-03-04T06:11:15;97797.81;;;-3.09;72.18
74675;BME280;63200;48.810;12.352;2023-03-04T06:13:40;97792.03;;;-2.91;72.35
74675;BME280;63200;48.810;12.352;2023-03-04T06:16:06;97789.06;;;-2.60;71.53
74675;BME280;63200;48.810;12.352;2023-03-04T06:18:31;97794.25;;;-1.81;70.06
74675;BME280;63200;48.810;12.352;2023-03-04T06:20:57;97792.47;;;-1.74;69.27
74675;BME280;63200;48.810;12.352;2023-03-04T06:23:23;97791.38;;;-1.31;68.28
74675;BME280;63200;48.810;12.352;2023-03-04T06:25:53;97792.06;;;-1.09;66.61
74675;BME280;63200;48.810;12.352;2023-03-04T06:28:19;97802.38;;;-0.66;66.46
74675;BME280;63200;48.810;12.352;2023-03-04T06:30:44;97807.31;;;-0.49;65.38
74675;BME280;63200;48.810;12.352;2023-03-04T06:33:09;97809.09;;;-0.03;65.17
74675;BME280;63200;48.810;12.352;2023-03-04T06:35:34;97813.88;;;0.60;62.74
74675;BME280;63200;48.810;12.352;2023-03-04T06:38:00;97808.38;;;1.26;60.53
74675;BME280;63200;48.810;12.352;2023-03-04T06:40:25;97792.13;;;1.27;59.86
74675;BME280;63200;48.810;12.352;2023-03-04T06:42:50;97815.16;;;1.28;60.27
74675;BME280;63200;48.810;12.352;2023-03-04T06:45:16;97821.72;;;0.94;61.76
74675;BME280;63200;48.810;12.352;2023-03-04T06:47:41;97822.81;;;1.75;60.71
74675;BME280;63200;48.810;12.352;2023-03-04T06:50:10;97825.06;;;2.41;58.23
74675;BME280;63200;48.810;12.352;2023-03-04T06:52:36;97823.50;;;2.70;57.62
74675;BME280;63200;48.810;12.352;2023-03-04T06:55:01;97748.59;;;2.08;57.54
74675;BME280;63200;48.810;12.352;2023-03-04T06:57:26;97817.00;;;2.41;58.00
74675;BME280;63200;48.810;12.352;2023-03-04T06:59:52;97826.84;;;2.65;56.80
74675;BME280;63200;48.810;12.352;2023-03-04T07:02:17;97837.28;;;3.04;56.02
74675;BME280;63200;48.810;12.352;2023-03-04T07:04:42;97788.09;;;3.76;55.40
74675;BME280;63200;48.810;12.352;2023-03-04T07:07:08;97829.91;;;5.25;51.81
74675;BME280;63200;48.810;12.352;2023-03-04T07:09:34;97833.38;;;5.37;50.23
74675;BME280;63200;48.810;12.352;2023-03-04T07:11:59;97812.03;;;4.49;50.65
74675;BME280;63200;48.810;12.352;2023-03-04T07:14:25;97845.63;;;3.57;53.98
74675;BME280;63200;48.810;12.352;2023-03-04T07:16:51;97821.34;;;3.52;53.94
74675;BME280;63200;48.810;12.352;2023-03-04T07:19:17;97851.16;;;3.74;53.89
74675;BME280;63200;48.810;12.352;2023-03-04T07:21:42;97837.03;;;2.94;55.52
74675;BME280;63200;48.810;12.352;2023-03-04T07:24:07;97846.66;;;3.13;55.64
74675;BME280;63200;48.810;12.352;2023-03-04T07:26:32;97850.59;;;3.11;56.01
74675;BME280;63200;48.810;12.352;2023-03-04T07:28:58;97857.19;;;3.45;55.83
74675;BME280;63200;48.810;12.352;2023-03-04T07:31:32;97807.69;;;2.80;56.54
74675;BME280;63200;48.810;12.352;2023-03-04T07:34:01;97862.81;;;2.58;57.63
74675;BME280;63200;48.810;12.352;2023-03-04T07:36:27;97805.50;;;3.74;54.54
74675;BME280;63200;48.810;12.352;2023-03-04T07:38:53;97858.72;;;3.23;55.50
74675;BME280;63200;48.810;12.352;2023-03-04T07:41:24;97857.38;;;3.13;55.66
74675;BME280;63200;48.810;12.352;2023-03-04T07:43:49;97863.97;;;3.60;55.40
74675;BME280;63200;48.810;12.352;2023-03-04T07:46:15;97853.06;;;5.55;50.57
74675;BME280;63200;48.810;12.352;2023-03-04T07:48:41;97876.34;;;5.78;48.59
74675;BME280;63200;48.810;12.352;2023-03-04T07:51:10;97879.09;;;4.56;51.62
74675;BME280;63200;48.810;12.352;2023-03-04T07:53:37;97872.22;;;3.16;55.21
74675;BME280;63200;48.810;12.352;2023-03-04T07:56:05;97865.50;;;3.67;53.66
74675;BME280;63200;48.810;12.352;2023-03-04T07:58:31;97882.97;;;4.24;53.30
74675;BME280;63200;48.810;12.352;2023-03-04T08:00:57;97833.50;;;2.93;55.11
74675;BME280;63200;48.810;12.352;2023-03-04T08:03:22;97839.94;;;3.65;54.11
74675;BME280;63200;48.810;12.352;2023-03-04T08:05:48;97878.00;;;4.92;51.29
74675;BME280;63200;48.810;12.352;2023-03-04T08:08:13;97851.16;;;4.57;51.49
74675;BME280;63200;48.810;12.352;2023-03-04T08:10:38;97850.97;;;4.23;52.13
74675;BME280;63200;48.810;12.352;2023-03-04T08:13:06;97887.50;;;3.46;54.16
74675;BME280;63200;48.810;12.352;2023-03-04T08:15:32;97886.28;;;2.81;55.57
74675;BME280;63200;48.810;12.352;2023-03-04T08:17:59;97884.41;;;2.81;56.50
74675;BME280;63200;48.810;12.352;2023-03-04T08:20:25;97880.47;;;2.65;56.12
74675;BME280;63200;48.810;12.352;2023-03-04T08:22:50;97897.06;;;2.12;57.36
74675;BME280;63200;48.810;12.352;2023-03-04T08:25:16;97895.72;;;1.77;58.52
74675;BME280;63200;48.810;12.352;2023-03-04T08:27:41;97905.47;;;1.65;58.30
74675;BME280;63200;48.810;12.352;2023-03-04T08:30:07;97878.94;;;0.86;60.36
74675;BME280;63200;48.810;12.352;2023-03-04T08:32:33;97912.31;;;0.57;60.91
74675;BME280;63200;48.810;12.352;2023-03-04T08:34:58;97909.81;;;0.69;61.44
74675;BME280;63200;48.810;12.352;2023-03-04T08:37:26;97912.88;;;0.79;61.59
74675;BME280;63200;48.810;12.352;2023-03-04T08:39:51;97917.16;;;0.87;60.67
74675;BME280;63200;48.810;12.352;2023-03-04T08:42:17;97917.91;;;0.35;62.94
74675;BME280;63200;48.810;12.352;2023-03-04T08:44:42;97923.88;;;0.24;63.42
74675;BME280;63200;48.810;12.352;2023-03-04T08:47:07;97905.00;;;0.25;63.59
74675;BME280;63200;48.810;12.352;2023-03-04T08:49:34;97923.25;;;0.35;63.14
74675;BME280;63200;48.810;12.352;2023-03-04T08:51:59;97924.31;;;0.07;63.06
74675;BME280;63200;48.810;12.352;2023-03-04T08:54:25;97926.97;;;0.14;63.66
74675;BME280;63200;48.810;12.352;2023-03-04T08:56:50;97896.19;;;-0.15;63.97
74675;BME280;63200;48.810;12.352;2023-03-04T08:59:15;97885.94;;;-0.12;64.69
74675;BME280;63200;48.810;12.352;2023-03-04T09:01:40;97894.94;;;-0.20;64.03
74675;BME280;63200;48.810;12.352;2023-03-04T09:04:06;97879.75;;;-0.32;64.80
74675;BME280;63200;48.810;12.352;2023-03-04T09:06:31;97920.63;;;0.08;64.44
74675;BME280;63200;48.810;12.352;2023-03-04T09:08:56;97921.00;;;0.05;63.80
74675;BME280;63200;48.810;12.352;2023-03-04T09:11:22;97920.00;;;-0.01;65.14
74675;BME280;63200;48.810;12.352;2023-03-04T09:13:47;97927.38;;;0.18;65.00
74675;BME280;63200;48.810;12.352;2023-03-04T09:16:13;97926.97;;;-0.20;65.75
74675;BME280;63200;48.810;12.352;2023-03-04T09:18:40;97929.22;;;0.10;64.63
74675;BME280;63200;48.810;12.352;2023-03-04T09:21:06;97926.38;;;0.19;64.18
74675;BME280;63200;48.810;12.352;2023-03-04T09:23:32;97895.16;;;0.06;64.61
74675;BME280;63200;48.810;12.352;2023-03-04T09:25:58;97934.16;;;0.33;64.08
74675;BME280;63200;48.810;12.352;2023-03-04T09:28:23;97905.00;;;0.05;64.78
74675;BME280;63200;48.810;12.352;2023-03-04T09:30:48;97911.16;;;0.12;63.85
74675;BME280;63200;48.810;12.352;2023-03-04T09:33:14;97934.38;;;0.25;64.00
74675;BME280;63200;48.810;12.352;2023-03-04T09:35:39;97941.53;;;0.38;63.76
74675;BME280;63200;48.810;12.352;2023-03-04T09:38:04;97932.69;;;0.44;64.04
74675;BME280;63200;48.810;12.352;2023-03-04T09:40:40;97927.97;;;0.46;63.43
74675;BME280;63200;48.810;12.352;2023-03-04T09:43:11;97932.25;;;0.47;63.89
74675;BME280;63200;48.810;12.352;2023-03-04T09:45:49;97901.28;;;0.40;63.49
74675;BME280;63200;48.810;12.352;2023-03-04T09:48:19;97945.66;;;0.27;63.67
74675;BME280;63200;48.810;12.352;2023-03-04T09:53:43;97937.16;;;0.77;63.18
74675;BME280;63200;48.810;12.352;2023-03-04T09:56:12;97898.28;;;0.75;63.30
74675;BME280;63200;48.810;12.352;2023-03-04T09:58:48;97934.88;;;0.81;62.69
74675;BME280;63200;48.810;12.352;2023-03-04T10:01:59;97932.81;;;0.76;63.41
74675;BME280;63200;48.810;12.352;2023-03-04T10:04:15;97938.84;;;0.65;63.56
74675;BME280;63200;48.810;12.352;2023-03-04T10:06:42;97928.31;;;0.77;62.78
74675;BME280;63200;48.810;12.352;2023-03-04T10:09:47;97932.16;;;0.94;63.39
74675;BME280;63200;48.810;12.352;2023-03-04T10:12:19;97936.69;;;0.87;62.60
74675;BME280;63200;48.810;12.352;2023-03-04T10:14:53;97934.00;;;0.94;62.86
74675;BME280;63200;48.810;12.352;2023-03-04T10:20:24;97932.38;;;0.93;63.18
74675;BME280;63200;48.810;12.352;2023-03-04T10:23:14;97928.72;;;0.74;62.93
74675;BME280;63200;48.810;12.352;2023-03-04T10:25:42;97875.19;;;0.35;63.92
74675;BME280;63200;48.810;12.352;2023-03-04T10:28:14;97919.91;;;0.73;62.90
74675;BME280;63200;48.810;12.352;2023-03-04T10:33:30;97922.66;;;0.13;64.33
74675;BME280;63200;48.810;12.352;2023-03-04T10:38:31;97917.22;;;0.73;63.71
74675;BME280;63200;48.810;12.352;2023-03-04T10:40:58;97923.84;;;0.30;64.24
74675;BME280;63200;48.810;12.352;2023-03-04T10:43:24;97918.31;;;0.52;63.69
74675;BME280;63200;48.810;12.352;2023-03-04T10:45:54;97919.34;;;0.44;63.58
74675;BME280;63200;48.810;12.352;2023-03-04T10:48:28;97924.50;;;0.32;63.13
74675;BME280;63200;48.810;12.352;2023-03-04T10:51:12;97923.25;;;0.28;64.31
74675;BME280;63200;48.810;12.352;2023-03-04T10:53:42;97922.84;;;0.11;64.49
74675;BME280;63200;48.810;12.352;2023-03-04T10:56:46;97929.03;;;0.19;63.28
74675;BME280;63200;48.810;12.352;2023-03-04T11:02:13;97926.97;;;0.14;63.34
74675;BME280;63200;48.810;12.352;2023-03-04T11:04:39;97924.72;;;0.24;62.87
74675;BME280;63200;48.810;12.352;2023-03-04T11:07:08;97867.22;;;-0.39;63.39
74675;BME280;63200;48.810;12.352;2023-03-04T11:09:35;97918.75;;;-0.18;63.88
74675;BME280;63200;48.810;12.352;2023-03-04T11:12:02;97914.44;;;-0.06;63.96
74675;BME280;63200;48.810;12.352;2023-03-04T11:14:34;97913.84;;;-0.01;63.77
74675;BME280;63200;48.810;12.352;2023-03-04T11:17:49;97919.38;;;-0.03;63.54
74675;BME280;63200;48.810;12.352;2023-03-04T11:20:22;97917.66;;;-0.64;64.52
74675;BME280;63200;48.810;12.352;2023-03-04T11:22:49;97896.34;;;-0.51;65.51
74675;BME280;63200;48.810;12.352;2023-03-04T11:27:55;97903.38;;;-0.03;62.61
74675;BME280;63200;48.810;12.352;2023-03-04T11:30:35;97900.06;;;-0.18;63.90
74675;BME280;63200;48.810;12.352;2023-03-04T11:38:21;97899.66;;;0.32;62.09
74675;BME280;63200;48.810;12.352;2023-03-04T11:41:31;97894.72;;;0.15;62.40
74675;BME280;63200;48.810;12.352;2023-03-04T11:44:00;97901.28;;;0.13;63.01
74675;BME280;63200;48.810;12.352;2023-03-04T11:46:52;97904.16;;;0.25;62.71
74675;BME280;63200;48.810;12.352;2023-03-04T11:49:50;97871.75;;;-0.06;62.67
74675;BME280;63200;48.810;12.352;2023-03-04T12:00:42;97844.44;;;-0.41;64.58
74675;BME280;63200;48.810;12.352;2023-03-04T12:03:35;97882.22;;;-0.24;63.50
74675;BME280;63200;48.810;12.352;2023-03-04T12:06:11;97880.75;;;-0.13;63.92
74675;BME280;63200;48.810;12.352;2023-03-04T12:11:15;97869.28;;;-0.47;64.64
74675;BME280;63200;48.810;12.352;2023-03-04T12:13:52;97871.75;;;-0.39;64.67
74675;BME280;63200;48.810;12.352;2023-03-04T12:33:31;97845.44;;;0.11;63.17
74675;BME280;63200;48.810;12.352;2023-03-04T12:42:01;97791.22;;;0.18;62.50
74675;BME280;63200;48.810;12.352;2023-03-04T12:44:33;97831.84;;;0.40;62.26
74675;BME280;63200;48.810;12.352;2023-03-04T12:47:26;97832.28;;;0.16;62.69
74675;BME280;63200;48.810;12.352;2023-03-04T12:55:53;97829.00;;;0.14;64.33
74675;BME280;63200;48.810;12.352;2023-03-04T12:58:23;97826.94;;;0.16;63.28
74675;BME280;63200;48.810;12.352;2023-03-04T13:03:53;97815.84;;;0.13;63.70
74675;BME280;63200;48.810;12.352;2023-03-04T13:09:43;97820.75;;;0.29;63.05
74675;BME280;63200;48.810;12.352;2023-03-04T13:11:50;97815.53;;;0.55;62.91
74675;BME280;63200;48.810;12.352;2023-03-04T13:16:55;97822.19;;;0.32;62.36
74675;BME280;63200;48.810;12.352;2023-03-04T13:19:41;97813.09;;;0.46;61.93
74675;BME280;63200;48.810;12.352;2023-03-04T13:28:05;97804.97;;;0.08;62.67
74675;BME280;63200;48.810;12.352;2023-03-04T13:43:39;97805.34;;;0.25;62.52
74675;BME280;63200;48.810;12.352;2023-03-04T13:56:47;97810.97;;;-0.37;63.70
74675;BME280;63200;48.810;12.352;2023-03-04T14:04:32;97799.03;;;0.06;63.32
74675;BME280;63200;48.810;12.352;2023-03-04T14:07:00;97804.03;;;-0.25;63.08
74675;BME280;63200;48.810;12.352;2023-03-04T14:09:31;97801.97;;;-0.29;63.41
74675;BME280;63200;48.810;12.352;2023-03-04T14:11:59;97805.25;;;-0.27;63.90
74675;BME280;63200;48.810;12.352;2023-03-04T14:14:29;97804.78;;;-0.04;64.09
74675;BME280;63200;48.810;12.352;2023-03-04T14:16:57;97794.13;;;0.09;63.52
74675;BME280;63200;48.810;12.352;2023-03-04T14:19:29;97794.94;;;0.10;63.43
74675;BME280;63200;48.810;12.352;2023-03-04T14:21:55;97794.06;;;0.29;63.61
74675;BME280;63200;48.810;12.352;2023-03-04T14:24:22;97781.75;;;0.22;63.30
74675;BME280;63200;48.810;12.352;2023-03-04T14:26:48;97735.69;;;-0.32;63.02
74675;BME280;63200;48.810;12.352;2023-03-04T14:29:32;97788.19;;;-0.13;63.74
74675;BME280;63200;48.810;12.352;2023-03-04T14:31:58;97762.75;;;-0.15;63.71
74675;BME280;63200;48.810;12.352;2023-03-04T14:34:29;97781.00;;;-0.12;63.54
74675;BME280;63200;48.810;12.352;2023-03-04T14:36:57;97769.47;;;0.01;63.37
74675;BME280;63200;48.810;12.352;2023-03-04T14:39:25;97775.63;;;0.08;63.16
74675;BME280;63200;48.810;12.352;2023-03-04T14:41:52;97772.53;;;0.11;62.53
74675;BME280;63200;48.810;12.352;2023-03-04T14:47:00;97767.97;;;0.25;63.04